Time;durP1;ratioP1;P1;durP2;ratioP2;P2;SDS_P1;SDS_P2;PMS_P1;PMS_P2;Temp;Humidity;BMP_temperature;BMP_pressure;BME280_temperature;BME280_humidity;BME280_pressure;Samples;Min_cycle;Max_cycle;Signal;HPM_P1;HPM_P2
2022/11/10 00:01:54;;;;;;;47.88;8.68;;;;;;;8.29;100.00;101606.91;5071576;28;20066;-46
2022/11/10 00:04:19;;;;;;;41.75;8.48;;;;;;;8.31;100.00;101605.31;5072355;28;20384;-47
2022/11/10 00:06:48;;;;;;;37.60;8.35;;;;;;;8.26;100.00;101611.91;5071536;28;20115;-49
2022/11/10 00:09:14;;;;;;;34.50;8.50;;;;;;;8.26;100.00;101599.06;5071554;28;20430;-46
2022/11/10 00:11:39;;;;;;;47.50;9.50;;;;;;;8.26;100.00;101604.22;5072367;28;20112;-47
2022/11/10 00:17:05;;;;;;;51.10;8.98;;;;;;;8.14;100.00;101609.59;5072226;28;20039;-48
2022/11/10 00:19:32;;;;;;;55.97;9.73;;;;;;;8.14;100.00;101605.34;5072063;28;20036;-45
2022/11/10 00:21:57;;;;;;;51.55;9.55;;;;;;;8.14;100.00;101602.78;5074743;28;20484;-45
2022/11/10 00:24:23;;;;;;;43.42;9.60;;;;;;;8.11;100.00;101605.19;5075438;28;20029;-47
2022/11/10 00:26:49;;;;;;;47.05;9.48;;;;;;;8.08;100.00;101605.00;5074912;28;20032;-46
2022/11/10 00:29:14;;;;;;;45.40;8.90;;;;;;;8.06;100.00;101611.78;5075268;28;20028;-47
2022/11/10 00:31:40;;;;;;;47.60;9.95;;;;;;;8.07;100.00;101616.09;5075751;28;20103;-46
2022/11/10 00:34:09;;;;;;;49.35;9.88;;;;;;;8.08;100.00;101620.41;5074773;28;20028;-44
2022/11/10 00:36:35;;;;;;;49.60;11.57;;;;;;;8.09;100.00;101622.19;5075226;28;20047;-45
2022/11/10 00:39:00;;;;;;;39.30;9.63;;;;;;;8.11;100.00;101628.28;5075141;28;20024;-48
2022/11/10 00:41:25;;;;;;;57.65;10.60;;;;;;;8.06;100.00;101633.19;5074692;28;20035;-47
2022/11/10 00:43:50;;;;;;;40.17;9.10;;;;;;;8.05;100.00;101635.69;5075284;28;20025;-44
2022/11/10 00:46:16;;;;;;;34.55;9.40;;;;;;;8.05;100.00;101636.53;5074909;28;20434;-46
2022/11/10 00:48:41;;;;;;;63.92;15.75;;;;;;;8.04;100.00;101639.03;5074643;28;20489;-45
2022/11/10 00:51:15;;;;;;;63.08;15.73;;;;;;;8.05;100.00;101651.06;5074697;28;20029;-46
2022/11/10 00:53:40;;;;;;;47.65;10.57;;;;;;;8.05;100.00;101638.25;5075158;28;20108;-48
2022/11/10 00:56:06;;;;;;;49.78;19.35;;;;;;;8.06;100.00;101642.59;5074172;28;20108;-47
2022/11/10 00:58:31;;;;;;;45.85;10.82;;;;;;;8.03;100.00;101637.25;5075063;28;20411;-46
2022/11/10 01:01:04;;;;;;;51.22;11.57;;;;;;;8.01;100.00;101644.03;5074687;28;20044;-48
2022/11/10 01:03:29;;;;;;;58.63;13.02;;;;;;;8.02;100.00;101636.41;5074504;28;20024;-47
2022/11/10 01:05:54;;;;;;;55.17;15.00;;;;;;;8.04;100.00;101639.03;5074290;28;20032;-48
2022/11/10 01:08:20;;;;;;;58.05;13.52;;;;;;;7.98;100.00;101647.31;5074753;28;20020;-47
2022/11/10 01:10:45;;;;;;;49.10;11.32;;;;;;;7.97;100.00;101639.53;5074232;28;20037;-44
2022/11/10 01:13:10;;;;;;;43.60;10.55;;;;;;;7.94;100.00;101641.91;5074475;28;20028;-45
2022/11/10 01:15:40;;;;;;;63.78;13.20;;;;;;;7.94;100.00;101647.06;5074686;28;20025;-47
2022/11/10 01:18:06;;;;;;;46.67;11.57;;;;;;;7.94;100.00;101650.53;5073758;28;20491;-48
2022/11/10 01:20:33;;;;;;;55.17;13.02;;;;;;;7.94;100.00;101652.19;5074336;28;20028;-46
2022/11/10 01:22:58;;;;;;;70.97;18.90;;;;;;;8.01;100.00;101654.28;5073640;28;20036;-46
2022/11/10 01:25:23;;;;;;;55.10;10.85;;;;;;;8.02;100.00;101666.34;5074553;28;20074;-45
2022/11/10 01:27:50;;;;;;;43.67;12.13;;;;;;;7.99;100.00;101682.44;5074628;28;20024;-48
2022/11/10 01:30:15;;;;;;;42.88;9.85;;;;;;;7.99;100.00;101678.97;5073817;28;20107;-45
2022/11/10 01:32:41;;;;;;;48.63;10.10;;;;;;;7.99;100.00;101681.56;5073661;28;20025;-45
2022/11/10 01:35:07;;;;;;;47.97;12.57;;;;;;;8.02;100.00;101682.59;5074250;28;20029;-47
2022/11/10 01:37:32;;;;;;;43.65;11.68;;;;;;;8.02;100.00;101686.88;5073723;28;20106;-44
2022/11/10 01:39:57;;;;;;;46.42;11.13;;;;;;;7.99;100.00;101691.81;5073918;28;20071;-44
2022/11/10 01:42:25;;;;;;;44.95;11.52;;;;;;;8.01;100.00;101692.78;5074450;28;20078;-47
2022/11/10 01:45:24;;;;;;;61.97;10.90;;;;;;;7.99;100.00;101686.69;5073684;28;20095;-47
2022/11/10 01:47:58;;;;;;;50.47;10.25;;;;;;;8.04;100.00;101690.38;5073535;28;20056;-45
2022/11/10 01:50:29;;;;;;;54.60;10.18;;;;;;;8.02;100.00;101687.75;5074302;28;20029;-48
2022/11/10 01:52:58;;;;;;;47.55;10.07;;;;;;;7.98;100.00;101684.91;5073590;28;20017;-44
2022/11/10 01:55:24;;;;;;;54.28;11.10;;;;;;;8.02;100.00;101686.88;5073738;28;20180;-46
2022/11/10 01:57:50;;;;;;;49.30;10.95;;;;;;;8.02;100.00;101682.59;5073891;28;20036;-48
2022/11/10 02:00:17;;;;;;;47.17;9.40;;;;;;;8.01;100.00;101678.25;5072957;28;20036;-46
2022/11/10 02:02:53;;;;;;;54.47;12.23;;;;;;;7.98;100.00;101682.34;5073529;28;20029;-48
2022/11/10 02:05:21;;;;;;;54.85;10.88;;;;;;;7.98;100.00;101682.34;5073360;28;20064;-48
2022/11/10 02:07:49;;;;;;;54.88;11.05;;;;;;;8.00;100.00;101693.59;5073531;28;20105;-47
2022/11/10 02:10:18;;;;;;;51.78;9.88;;;;;;;7.98;100.00;101683.25;5073280;28;20496;-48
2022/11/10 02:12:45;;;;;;;56.88;10.52;;;;;;;7.98;100.00;101684.91;5072906;28;20461;-47
2022/11/10 02:15:13;;;;;;;51.35;10.02;;;;;;;7.93;100.00;101694.03;5072996;28;20117;-46
2022/11/10 02:17:39;;;;;;;46.30;10.02;;;;;;;7.98;100.00;101690.03;5073648;28;20024;-46
2022/11/10 02:20:09;;;;;;;41.53;9.27;;;;;;;7.97;100.00;101698.56;5072891;28;20027;-46
2022/11/10 02:22:35;;;;;;;63.03;9.93;;;;;;;7.97;100.00;101698.56;5073160;28;20452;-45
2022/11/10 02:25:01;;;;;;;45.55;9.68;;;;;;;7.96;100.00;101700.25;5073110;28;20112;-48
2022/11/10 02:27:27;;;;;;;50.03;9.48;;;;;;;7.93;100.00;101706.88;5072683;28;20085;-48
2022/11/10 02:29:52;;;;;;;53.40;9.48;;;;;;;7.95;100.00;101713.00;5072933;28;20020;-43
2022/11/10 02:32:18;;;;;;;48.65;9.43;;;;;;;7.92;100.00;101716.28;5073763;28;20029;-48
2022/11/10 02:34:43;;;;;;;47.92;9.05;;;;;;;7.95;100.00;101718.13;5072739;28;20119;-48
2022/11/10 02:37:09;;;;;;;45.33;9.05;;;;;;;7.91;100.00;101732.47;5072671;28;20031;-47
2022/11/10 02:39:35;;;;;;;45.08;8.45;;;;;;;7.87;100.00;101736.53;5073304;28;20027;-48
2022/11/10 02:42:00;;;;;;;51.85;10.18;;;;;;;7.84;100.00;101740.66;5072359;28;20435;-47
2022/11/10 02:44:26;;;;;;;44.05;8.90;;;;;;;7.84;100.00;101740.66;5072794;28;20104;-47
2022/11/10 02:46:51;;;;;;;44.30;8.98;;;;;;;7.80;100.00;101741.25;5072961;28;20465;-48
2022/11/10 02:49:16;;;;;;;58.10;9.27;;;;;;;7.82;100.00;101735.41;5072054;28;20075;-49
2022/11/10 02:51:42;;;;;;;42.65;9.10;;;;;;;7.83;100.00;101742.31;5072658;28;20031;-48
2022/11/10 02:54:07;;;;;;;44.13;8.85;;;;;;;7.81;100.00;101738.81;5072853;28;20103;-45
2022/11/10 02:56:34;;;;;;;45.72;9.27;;;;;;;7.77;100.00;101741.09;5072443;28;20035;-48
2022/11/10 02:59:00;;;;;;;46.10;9.43;;;;;;;7.77;100.00;101734.28;5072450;28;20099;-46
2022/11/10 03:01:25;;;;;;;46.22;8.73;;;;;;;7.77;100.00;101738.53;5072444;28;20452;-47
2022/11/10 03:03:50;;;;;;;45.47;9.00;;;;;;;7.75;100.00;101743.59;5072775;28;20012;-46
2022/11/10 03:06:15;;;;;;;59.67;9.00;;;;;;;7.75;100.00;101748.72;5072589;28;20044;-49
2022/11/10 03:08:41;;;;;;;55.25;8.70;;;;;;;7.71;100.00;101751.91;5072327;28;20025;-47
2022/11/10 03:11:06;;;;;;;53.03;9.23;;;;;;;7.73;100.00;101750.31;5072435;28;20385;-45
2022/11/10 03:13:31;;;;;;;41.72;8.30;;;;;;;7.71;100.00;101752.78;5072834;28;20074;-48
2022/11/10 03:15:57;;;;;;;61.75;9.63;;;;;;;7.72;100.00;101753.66;5071760;28;20032;-48
2022/11/10 03:18:22;;;;;;;50.15;10.07;;;;;;;7.72;100.00;101749.44;5072608;28;20024;-47
2022/11/10 03:20:48;;;;;;;38.30;8.23;;;;;;;7.71;100.00;101764.75;5072721;28;20399;-48
2022/11/10 03:23:17;;;;;;;39.60;8.80;;;;;;;7.69;100.00;101761.19;5071809;28;20052;-49
2022/11/10 03:25:43;;;;;;;46.63;9.05;;;;;;;7.62;100.00;101765.13;5072334;28;20048;-48
2022/11/10 03:28:08;;;;;;;42.53;8.95;;;;;;;7.67;100.00;101771.38;5072215;28;20106;-47
2022/11/10 03:30:34;;;;;;;47.42;8.70;;;;;;;7.67;100.00;101773.94;5072218;28;20031;-47
2022/11/10 03:32:59;;;;;;;41.60;9.02;;;;;;;7.67;100.00;101780.75;5072251;28;20040;-48
2022/11/10 03:35:25;;;;;;;46.33;8.82;;;;;;;7.68;100.00;101782.53;5072683;28;20480;-47
2022/11/10 03:37:50;;;;;;;60.03;9.82;;;;;;;7.62;100.00;101783.06;5071981;28;20508;-47
2022/11/10 03:40:15;;;;;;;48.50;9.98;;;;;;;7.64;100.00;101791.72;5071998;28;20027;-45
2022/11/10 03:42:42;;;;;;;50.22;9.68;;;;;;;7.60;100.00;101794.91;5072426;28;20503;-46
2022/11/10 03:45:09;;;;;;;54.47;9.30;;;;;;;7.57;100.00;101799.88;5071821;28;20108;-48
2022/11/10 03:47:34;;;;;;;47.50;9.55;;;;;;;7.55;100.00;101792.09;5071841;28;20557;-48
2022/11/10 03:49:59;;;;;;;53.58;8.55;;;;;;;7.53;100.00;101803.94;5072197;28;20034;-47
2022/11/10 03:52:24;;;;;;;53.88;8.52;;;;;;;7.51;100.00;101805.53;5072040;28;20032;-45
2022/11/10 03:54:50;;;;;;;61.72;10.70;;;;;;;7.52;100.00;101812.44;5072041;28;20379;-48
2022/11/10 03:57:15;;;;;;;52.50;9.10;;;;;;;7.54;100.00;101815.97;5075838;28;20027;-48
2022/11/10 03:59:40;;;;;;;51.90;9.00;;;;;;;7.53;100.00;101809.06;5075575;28;20028;-47
2022/11/10 04:02:05;;;;;;;45.42;9.07;;;;;;;7.51;100.00;101820.91;5075778;28;20055;-46
2022/11/10 04:09:58;;;;;;;42.60;8.82;;;;;;;7.44;100.00;101816.25;5075982;28;20040;-47
2022/11/10 04:18:19;;;;;;;56.97;10.10;;;;;;;7.42;100.00;101835.78;5076088;28;20043;-46
2022/11/10 04:20:40;;;;;;;49.63;10.40;;;;;;;7.45;100.00;101835.97;5075151;28;20040;-48
2022/11/10 04:28:33;;;;;;;60.22;11.35;;;;;;;7.43;100.00;101850.38;5075697;28;20450;-44
2022/11/10 04:30:59;;;;;;;58.78;10.68;;;;;;;7.41;100.00;101849.38;5075496;28;20461;-47
2022/11/10 04:33:24;;;;;;;58.45;9.63;;;;;;;7.45;100.00;101855.59;5075104;28;20392;-46
2022/11/10 04:35:49;;;;;;;50.92;9.48;;;;;;;7.44;100.00;101859.84;5075445;28;20037;-44
2022/11/10 04:38:15;;;;;;;50.60;9.55;;;;;;;7.45;100.00;101869.31;5075225;28;20107;-48
2022/11/10 04:40:40;;;;;;;51.53;10.15;;;;;;;7.39;100.00;101872.38;5074725;28;20025;-47
2022/11/10 04:43:05;;;;;;;54.03;9.43;;;;;;;7.40;100.00;101883.56;5074706;28;20365;-45
2022/11/10 04:45:32;;;;;;;52.45;9.13;;;;;;;7.39;100.00;101889.47;5075534;28;20016;-48
2022/11/10 04:47:57;;;;;;;49.60;9.35;;;;;;;7.36;100.00;101881.56;5074237;28;20044;-47
2022/11/10 04:50:22;;;;;;;56.40;11.18;;;;;;;7.36;100.00;101892.75;5075254;28;20029;-48
2022/11/10 04:52:48;;;;;;;61.83;10.63;;;;;;;7.34;100.00;101903.69;5075368;28;20039;-47
2022/11/10 04:55:13;;;;;;;60.88;9.43;;;;;;;7.34;100.00;101903.69;5074315;28;20050;-45
2022/11/10 04:57:39;;;;;;;46.20;9.68;;;;;;;7.30;100.00;101902.63;5074816;28;20033;-46
2022/11/10 05:00:06;;;;;;;57.80;10.13;;;;;;;7.29;100.00;101903.41;5074923;28;20021;-48
2022/11/10 05:02:31;;;;;;;45.73;9.40;;;;;;;7.34;100.00;101914.84;5074917;28;20024;-48
2022/11/10 05:04:57;;;;;;;49.47;9.60;;;;;;;7.25;100.00;101910.03;5074564;28;20483;-48
2022/11/10 05:07:22;;;;;;;49.03;9.35;;;;;;;7.25;100.00;101910.03;5073680;28;20032;-45
2022/11/10 05:09:48;;;;;;;55.05;9.88;;;;;;;7.26;100.00;101910.94;5074435;28;20039;-47
2022/11/10 05:12:13;;;;;;;62.80;10.60;;;;;;;7.27;100.00;101912.72;5074312;28;20032;-46
2022/11/10 05:14:38;;;;;;;55.95;9.85;;;;;;;7.22;100.00;101920.13;5075016;28;20021;-49
2022/11/10 05:17:03;;;;;;;40.88;10.15;;;;;;;7.24;100.00;101918.53;5073898;28;20502;-47
2022/11/10 05:19:29;;;;;;;56.00;9.63;;;;;;;7.26;100.00;101913.50;5074653;28;20071;-48
2022/11/10 05:21:54;;;;;;;67.88;11.23;;;;;;;7.28;100.00;101917.03;5074496;28;20029;-48
2022/11/10 05:24:19;;;;;;;55.95;9.90;;;;;;;7.27;100.00;101915.28;5073894;28;20028;-46
2022/11/10 05:26:44;;;;;;;54.40;9.80;;;;;;;7.25;100.00;101920.28;5074401;28;20025;-44
2022/11/10 05:29:10;;;;;;;60.22;9.95;;;;;;;7.24;100.00;101917.63;5073794;28;20020;-47
2022/11/10 05:31:35;;;;;;;57.20;10.10;;;;;;;7.20;100.00;101916.56;5074384;28;20033;-48
2022/11/10 05:34:00;;;;;;;52.60;9.48;;;;;;;7.23;100.00;101911.63;5073960;28;20028;-47
2022/11/10 05:36:25;;;;;;;56.42;9.75;;;;;;;7.27;100.00;101922.06;5073987;28;20021;-48
2022/11/10 05:38:51;;;;;;;57.03;10.52;;;;;;;7.22;100.00;101912.44;5074092;28;20029;-46
2022/11/10 05:41:16;;;;;;;59.28;11.25;;;;;;;7.20;100.00;101915.69;5074092;28;20023;-46
2022/11/10 05:43:41;;;;;;;47.83;10.70;;;;;;;7.21;100.00;101918.34;5073812;28;20017;-48
2022/11/10 05:46:07;;;;;;;47.17;10.13;;;;;;;7.16;100.00;101924.88;5073535;28;20096;-44
2022/11/10 05:48:32;;;;;;;67.30;10.45;;;;;;;7.18;100.00;101925.84;5073868;28;20045;-47
2022/11/10 05:50:57;;;;;;;56.90;9.80;;;;;;;7.18;100.00;101948.94;5073249;28;20520;-47
2022/11/10 05:53:22;;;;;;;54.03;10.18;;;;;;;7.16;100.00;101942.81;5073864;28;20025;-47
2022/11/10 05:55:48;;;;;;;57.88;10.38;;;;;;;7.14;100.00;101941.84;5074137;28;20029;-47
2022/11/10 05:58:13;;;;;;;57.33;9.98;;;;;;;7.12;100.00;101945.13;5073223;28;20024;-48
2022/11/10 06:00:38;;;;;;;57.17;10.00;;;;;;;7.10;100.00;101950.13;5073761;28;20047;-46
2022/11/10 06:03:10;;;;;;;52.45;9.68;;;;;;;7.07;100.00;101947.38;5073691;28;20020;-48
2022/11/10 06:05:35;;;;;;;57.58;9.82;;;;;;;7.09;100.00;101949.25;5073351;28;20044;-47
2022/11/10 06:08:03;;;;;;;54.58;9.50;;;;;;;7.04;100.00;101962.59;5073131;28;20024;-45
2022/11/10 06:10:28;;;;;;;57.08;10.77;;;;;;;7.06;100.00;101963.53;5073651;28;20035;-47
2022/11/10 06:12:53;;;;;;;56.17;9.82;;;;;;;7.03;100.00;101963.38;5072723;28;20032;-45
2022/11/10 06:15:20;;;;;;;52.22;10.75;;;;;;;7.01;100.00;101972.63;5073524;28;20024;-45
2022/11/10 06:17:45;;;;;;;56.55;11.15;;;;;;;7.00;100.00;101971.75;5073514;28;20023;-49
2022/11/10 06:20:12;;;;;;;49.63;10.50;;;;;;;6.98;100.00;101969.88;5072199;28;20387;-44
2022/11/10 06:22:38;;;;;;;62.22;10.57;;;;;;;7.01;100.00;101975.19;5073435;28;20025;-47
2022/11/10 06:25:03;;;;;;;56.58;10.55;;;;;;;7.00;100.00;101968.31;5073093;28;20111;-47
2022/11/10 06:27:29;;;;;;;50.45;10.52;;;;;;;7.00;100.00;101973.44;5072676;28;20044;-48
2022/11/10 06:29:54;;;;;;;57.28;10.50;;;;;;;6.95;100.00;101969.72;5073164;28;20472;-48
2022/11/10 06:32:19;;;;;;;57.63;10.65;;;;;;;6.96;100.00;101971.44;5072713;28;20032;-47
2022/11/10 06:34:44;;;;;;;53.65;10.75;;;;;;;6.98;100.00;101991.25;5072998;28;20024;-46
2022/11/10 06:37:10;;;;;;;61.03;10.98;;;;;;;6.99;100.00;101995.59;5072872;28;20023;-45
2022/11/10 06:39:35;;;;;;;62.10;10.95;;;;;;;6.96;100.00;101999.66;5072506;28;20392;-45
2022/11/10 06:42:00;;;;;;;60.10;10.60;;;;;;;6.95;100.00;102000.47;5072792;28;20480;-48
2022/11/10 06:44:26;;;;;;;50.65;10.88;;;;;;;6.92;100.00;102001.16;5072942;28;20025;-48
2022/11/10 06:46:51;;;;;;;55.95;10.63;;;;;;;6.91;100.00;102020.75;5072562;28;20030;-46
2022/11/10 06:49:17;;;;;;;55.03;10.05;;;;;;;6.88;100.00;102020.56;5072250;28;20068;-48
2022/11/10 06:51:43;;;;;;;51.28;9.77;;;;;;;6.87;100.00;102034.16;5073057;28;20121;-48
2022/11/10 06:54:08;;;;;;;48.67;10.77;;;;;;;6.88;100.00;102041.06;5072042;28;20064;-46
2022/11/10 06:56:33;;;;;;;57.88;10.35;;;;;;;6.86;100.00;102031.50;5072607;28;20085;-48
2022/11/10 06:58:59;;;;;;;55.28;10.07;;;;;;;6.87;100.00;102038.41;5072786;28;20020;-45
2022/11/10 07:01:25;;;;;;;55.45;11.50;;;;;;;6.89;100.00;102042.84;5072433;28;20048;-47
2022/11/10 07:03:52;;;;;;;65.78;11.65;;;;;;;6.92;100.00;102047.28;5072704;28;20392;-47
2022/11/10 07:06:17;;;;;;;53.95;11.05;;;;;;;6.91;100.00;102051.50;5072601;28;20039;-47
2022/11/10 07:08:42;;;;;;;59.08;11.32;;;;;;;6.96;100.00;102043.22;5072137;28;20028;-49
2022/11/10 07:11:08;;;;;;;51.58;10.25;;;;;;;6.96;100.00;102043.22;5072131;28;20117;-46
2022/11/10 07:13:33;;;;;;;59.60;11.02;;;;;;;6.96;100.00;102058.59;5072960;28;20468;-45
2022/11/10 07:15:58;;;;;;;48.95;10.60;;;;;;;6.97;100.00;102056.16;5071859;28;20046;-48
2022/11/10 07:18:24;;;;;;;53.10;10.95;;;;;;;6.98;100.00;102062.16;5072536;28;20025;-48
2022/11/10 07:20:49;;;;;;;53.28;10.75;;;;;;;7.00;100.00;102070.84;5072717;28;20029;-47
2022/11/10 07:23:14;;;;;;;54.05;10.55;;;;;;;7.01;100.00;102077.72;5071471;28;20415;-46
2022/11/10 07:25:39;;;;;;;52.38;11.10;;;;;;;6.99;100.00;102079.31;5072576;28;20032;-48
2022/11/10 07:28:07;;;;;;;55.92;11.10;;;;;;;7.01;100.00;102085.41;5072367;28;20425;-47
2022/11/10 07:30:34;;;;;;;51.38;11.35;;;;;;;7.04;100.00;102098.44;5072943;28;20028;-48
2022/11/10 07:33:13;;;;;;;53.97;9.57;;;;;;;7.05;100.00;102101.09;5076518;28;20032;-47
2022/11/10 07:35:39;;;;;;;53.80;10.73;;;;;;;7.11;100.00;102108.28;5076169;28;20056;-48
2022/11/10 07:38:10;;;;;;;57.08;11.40;;;;;;;7.12;100.00;102112.63;5075998;28;20060;-47
2022/11/10 07:40:36;;;;;;;46.00;9.90;;;;;;;7.16;100.00;102099.22;5076427;28;20468;-46
2022/11/10 07:43:02;;;;;;;52.65;10.57;;;;;;;7.19;100.00;102095.94;5075746;28;20032;-47
2022/11/10 07:45:28;;;;;;;64.28;10.52;;;;;;;7.25;100.00;102093.78;5076166;28;20016;-45
2022/11/10 07:48:04;;;;;;;62.35;11.02;;;;;;;7.29;100.00;102098.31;5075992;28;20024;-47
2022/11/10 07:50:29;;;;;;;46.45;10.40;;;;;;;7.35;100.00;102092.69;5075705;28;20052;-44
2022/11/10 07:53:12;;;;;;;56.45;10.88;;;;;;;7.38;100.00;102100.56;5075964;28;20138;-44
2022/11/10 07:55:39;;;;;;;53.53;10.57;;;;;;;7.43;100.00;102099.19;5076346;28;20024;-48
2022/11/10 07:58:04;;;;;;;72.55;10.50;;;;;;;7.48;100.00;102102.03;5075759;28;20063;-46
2022/11/10 08:00:30;;;;;;;40.65;9.50;;;;;;;7.53;100.00;102104.09;5075957;28;20056;-48
2022/11/10 08:03:13;;;;;;;52.00;10.38;;;;;;;7.58;100.00;102122.34;5075710;28;20521;-47
2022/11/10 08:05:39;;;;;;;53.33;10.55;;;;;;;7.67;100.00;102114.31;5075508;28;20119;-48
2022/11/10 08:08:06;;;;;;;52.40;11.05;;;;;;;7.75;100.00;102120.81;5075862;28;20024;-47
2022/11/10 08:10:32;;;;;;;47.33;10.07;;;;;;;7.80;100.00;102134.81;5076086;28;20036;-47
2022/11/10 08:12:59;;;;;;;53.80;9.75;;;;;;;7.87;100.00;102125.81;5074756;28;20419;-47
2022/11/10 08:15:26;;;;;;;64.72;11.38;;;;;;;7.93;100.00;102139.03;5075848;28;20119;-47
2022/11/10 08:17:58;;;;;;;48.22;10.05;;;;;;;8.05;100.00;102149.16;5075270;28;20028;-47
2022/11/10 08:20:23;;;;;;;47.85;10.30;;;;;;;8.19;100.00;102147.44;5075558;28;20476;-46
2022/11/10 08:22:54;;;;;;;50.25;10.05;;;;;;;8.20;100.00;102144.94;5075966;28;20033;-48
2022/11/10 08:25:19;;;;;;;54.53;10.23;;;;;;;8.30;100.00;102148.06;5075097;28;20025;-47
2022/11/10 08:27:45;;;;;;;47.25;9.15;;;;;;;8.38;100.00;102144.28;5075371;28;20373;-48
2022/11/10 08:30:10;;;;;;;60.17;10.55;;;;;;;8.45;100.00;102148.97;5075328;28;20032;-47
2022/11/10 08:32:36;;;;;;;48.78;10.07;;;;;;;8.49;100.00;102158.66;5074902;28;20032;-46
2022/11/10 08:35:01;;;;;;;58.50;11.65;;;;;;;8.54;100.00;102152.13;5075082;28;20028;-48
2022/11/10 08:37:26;;;;;;;52.30;10.07;;;;;;;8.53;100.00;102144.31;5075599;28;20384;-47
2022/11/10 08:39:52;;;;;;;42.85;10.20;;;;;;;8.56;100.00;102155.69;5075003;28;20468;-47
2022/11/10 08:42:17;;;;;;;64.00;10.23;;;;;;;8.57;100.00;102154.88;5075431;28;20040;-47
2022/11/10 08:44:42;;;;;;;51.75;9.25;;;;;;;8.62;100.00;102152.56;5075206;28;20028;-49
2022/11/10 08:47:08;;;;;;;60.67;10.30;;;;;;;8.63;100.00;102159.50;5074297;28;20035;-45
2022/11/10 08:49:33;;;;;;;60.13;10.45;;;;;;;8.67;100.00;102163.13;5074915;28;20040;-45
2022/11/10 08:51:58;;;;;;;44.08;10.07;;;;;;;8.69;100.00;102166.69;5074949;28;20028;-48
2022/11/10 08:54:23;;;;;;;44.08;9.02;;;;;;;8.71;100.00;102165.97;5074509;28;20021;-49
2022/11/10 08:56:49;;;;;;;52.10;9.80;;;;;;;8.75;100.00;102167.03;5074861;28;20025;-48
2022/11/10 08:59:14;;;;;;;45.20;9.52;;;;;;;8.81;100.00;102177.66;5074807;28;20021;-48
2022/11/10 09:01:39;;;;;;;53.92;10.57;;;;;;;8.87;100.00;102178.03;5074163;28;20024;-48
2022/11/10 09:04:05;;;;;;;46.67;9.95;;;;;;;8.94;100.00;102175.81;5074602;28;20464;-47
2022/11/10 09:06:30;;;;;;;51.20;9.57;;;;;;;8.99;100.00;102184.69;5074968;28;20028;-46
2022/11/10 09:08:55;;;;;;;53.05;8.95;;;;;;;9.03;100.00;102184.94;5073931;28;20078;-47
2022/11/10 09:11:20;;;;;;;57.33;11.07;;;;;;;9.18;100.00;102177.22;5075010;28;20028;-47
2022/11/10 09:13:46;;;;;;;56.25;11.13;;;;;;;9.36;100.00;102181.59;5074748;28;20373;-45
2022/11/10 09:16:11;;;;;;;52.80;9.75;;;;;;;9.60;100.00;102204.38;5073640;28;20352;-48
2022/11/10 09:18:36;;;;;;;58.80;10.02;;;;;;;9.81;100.00;102200.41;5074825;28;20030;-49
2022/11/10 09:21:03;;;;;;;48.63;10.13;;;;;;;10.02;100.00;102203.25;5074588;28;20016;-48
2022/11/10 09:23:28;;;;;;;43.10;9.77;;;;;;;10.25;100.00;102200.13;5073912;28;20094;-45
2022/11/10 09:25:55;;;;;;;49.53;9.68;;;;;;;10.45;100.00;102203.78;5074347;28;20376;-46
2022/11/10 09:28:21;;;;;;;44.53;9.07;;;;;;;10.62;100.00;102196.91;5073994;28;20051;-47
2022/11/10 09:30:49;;;;;;;48.72;10.30;;;;;;;10.79;100.00;102203.81;5074461;28;20035;-47
2022/11/10 09:33:15;;;;;;;52.47;9.38;;;;;;;10.95;100.00;102207.16;5074276;28;20032;-48
2022/11/10 09:35:41;;;;;;;46.30;8.07;;;;;;;11.22;100.00;102204.16;5073861;28;20035;-45
2022/11/10 09:38:07;;;;;;;51.67;9.68;;;;;;;11.38;98.23;102201.53;5073861;28;20025;-48
2022/11/10 09:41:06;;;;;;;57.65;9.07;;;;;;;11.61;97.05;102204.31;5074218;28;20024;-48
2022/11/10 09:43:39;;;;;;;38.25;8.40;;;;;;;11.66;94.61;102202.84;5073942;28;20013;-47
2022/11/10 09:46:17;;;;;;;40.67;8.38;;;;;;;12.04;95.25;102211.50;5073891;28;20427;-48
2022/11/10 09:48:50;;;;;;;38.30;7.68;;;;;;;12.13;92.62;102211.03;5074100;28;20044;-46
2022/11/10 09:51:28;;;;;;;38.65;7.88;;;;;;;12.29;91.35;102210.91;5072865;28;20094;-48
2022/11/10 09:54:09;;;;;;;48.25;8.45;;;;;;;12.52;91.91;102222.28;5073152;28;20393;-44
2022/11/10 09:56:36;;;;;;;48.15;9.43;;;;;;;12.62;88.27;102209.72;5073574;28;20028;-49
2022/11/10 09:59:26;;;;;;;39.97;8.23;;;;;;;12.80;90.02;102207.03;5073290;28;20391;-47
2022/11/10 10:02:29;;;;;;;41.67;7.75;;;;;;;12.82;88.32;102206.28;5073949;28;20104;-48
2022/11/10 10:05:28;;;;;;;38.50;8.05;;;;;;;12.80;87.63;102210.50;5072562;28;20842;-47
2022/11/10 10:08:09;;;;;;;43.05;8.10;;;;;;;12.95;86.97;102206.78;5062309;28;20042;-48
2022/11/10 10:10:48;;;;;;;45.08;8.52;;;;;;;13.02;86.87;102211.41;5073288;28;20024;-47
2022/11/10 10:13:49;;;;;;;45.25;7.65;;;;;;;13.23;86.13;102218.28;5073272;28;20108;-46
2022/11/10 10:16:38;;;;;;;41.17;7.82;;;;;;;13.23;83.95;102223.47;5073421;28;20106;-49
2022/11/10 10:19:19;;;;;;;52.78;7.65;;;;;;;13.26;84.02;102229.66;5072621;28;20036;-48
2022/11/10 10:22:19;;;;;;;36.00;7.70;;;;;;;13.27;82.28;102230.53;5073611;28;20028;-47
2022/11/10 10:24:46;;;;;;;37.30;6.82;;;;;;;13.28;83.67;102232.31;5072777;28;20036;-47
2022/11/10 10:27:21;;;;;;;38.63;7.22;;;;;;;13.61;82.84;102244.88;5072973;28;20032;-46
2022/11/10 10:29:48;;;;;;;49.30;8.05;;;;;;;13.73;81.67;102250.53;5073448;28;20020;-48
2022/11/10 10:32:15;;;;;;;38.95;8.02;;;;;;;13.95;80.73;102251.38;5072501;28;20103;-47
2022/11/10 10:34:43;;;;;;;45.40;8.45;;;;;;;13.89;79.07;102258.91;5073019;28;20036;-48
2022/11/10 10:37:21;;;;;;;48.17;9.93;;;;;;;14.04;79.78;102254.31;5072729;28;20093;-48
2022/11/10 10:39:49;;;;;;;41.35;7.85;;;;;;;13.84;78.43;102266.53;5072685;28;20067;-48
2022/11/10 10:42:29;;;;;;;38.30;7.55;;;;;;;13.73;78.88;102272.97;5072779;28;20038;-45
2022/11/10 10:45:17;;;;;;;37.42;6.90;;;;;;;13.91;80.78;102283.19;5072922;28;20028;-49
2022/11/10 10:47:43;;;;;;;42.50;8.52;;;;;;;14.03;77.78;102294.00;5072015;28;20029;-48
2022/11/10 10:50:31;;;;;;;37.78;7.72;;;;;;;14.02;77.73;102294.84;5072983;28;20380;-47
2022/11/10 10:53:16;;;;;;;35.75;8.60;;;;;;;14.16;78.32;102291.06;5072258;28;20024;-48
2022/11/10 10:55:53;;;;;;;45.40;7.10;;;;;;;14.35;78.11;102291.75;5072698;28;20479;-45
2022/11/10 10:58:28;;;;;;;50.55;7.45;;;;;;;14.47;76.95;102291.31;5073209;28;20048;-48
2022/11/10 11:01:00;;;;;;;48.75;7.35;;;;;;;14.49;75.05;102289.69;5071699;28;20020;-47
2022/11/10 11:03:45;;;;;;;58.55;11.02;;;;;;;14.47;75.40;102287.03;5072881;28;20606;-45
2022/11/10 11:06:13;;;;;;;39.05;7.35;;;;;;;14.34;75.49;102292.56;5071519;28;20024;-48
2022/11/10 11:08:51;;;;;;;33.47;6.18;;;;;;;14.40;75.07;102290.22;5072129;28;20025;-46
2022/11/10 11:11:16;;;;;;;36.35;6.53;;;;;;;14.38;75.96;102280.63;5072588;28;20023;-48
2022/11/10 11:13:42;;;;;;;28.20;6.28;;;;;;;14.27;74.92;102280.22;5072258;28;20029;-46
2022/11/10 11:16:08;;;;;;;40.28;6.88;;;;;;;14.42;75.39;102274.72;5072204;28;20020;-47
2022/11/10 11:18:38;;;;;;;34.38;7.07;;;;;;;14.52;74.94;102281.13;5072643;28;20025;-44
2022/11/10 11:21:25;;;;;;;38.33;7.90;;;;;;;14.86;74.21;102287.53;5072004;28;20032;-45
2022/11/10 11:24:28;;;;;;;53.28;10.38;;;;;;;14.79;73.51;102281.25;5072655;28;20028;-47
2022/11/10 11:27:06;;;;;;;43.60;8.13;;;;;;;14.79;73.79;102279.53;5017654;28;20429;-48
2022/11/10 11:29:46;;;;;;;38.42;6.25;;;;;;;14.63;74.28;102275.50;5071970;28;20056;-47
2022/11/10 11:32:21;;;;;;;35.75;6.47;;;;;;;14.59;72.73;102273.63;5072419;28;20028;-48
2022/11/10 11:34:57;;;;;;;43.15;8.77;;;;;;;14.57;74.81;102283.03;5071859;28;20549;-46
2022/11/10 11:37:31;;;;;;;37.67;9.43;;;;;;;14.75;74.27;102298.44;5072260;28;20433;-47
2022/11/10 11:40:23;;;;;;;34.60;10.02;;;;;;;14.88;73.61;102306.66;5072437;28;20074;-47